KDNV/DNV METAR and TAF weather

Enter ICAO airport designator
Station Type Date Time Source
KDNV METAR 2018/12/10 19:35 UTC NOAA

KDNV 101935Z AUTO 24003KT 5SM BR SCT009 M03/M05 A3025 RMK AO2 T10271051


Station Type Date Time Source
KDNV Decoded METAR 2018/12/10 19:35 UTC NOAA

Danville, Vermilion County Airport, IL, United States (KDNV) 40-11-58N 087-35-44W
Dec 10, 2018 - 02:35 PM EST / 2018.12.10 1935 UTC
Wind: from the WSW (240 degrees) at 3 MPH (3 KT):0
Visibility: 5 mile(s):0
Sky conditions: partly cloudy
Weather: mist
Temperature: 27.1 F (-2.7 C)
Dew Point: 22.8 F (-5.1 C)
Relative Humidity: 83%
Pressure (altimeter): 30.25 in. Hg (1024 hPa)
ob: KDNV 101935Z AUTO 24003KT 5SM BR SCT009 M03/M05 A3025 RMK AO2 T10271051
cycle: 19

Station Type Date Time Source
KDNV TAF UTC NOAA

Error!


Example: see airport list